Time;durP1;ratioP1;P1;durP2;ratioP2;P2;SDS_P1;SDS_P2;PMS_P1;PMS_P2;Temp;Humidity;BMP_temperature;BMP_pressure;BME280_temperature;BME280_humidity;BME280_pressure;Samples;Min_cycle;Max_cycle;Signal;HPM_P1;HPM_P2
2022/11/27 00:00:19;;;;;;;;;;;;;;;5.33;100.00;99300.28;5067484;28;19983;-60
2022/11/27 00:02:45;;;;;;;;;;;;;;;5.01;100.00;99300.91;5069758;28;19964;-60
2022/11/27 00:05:13;;;;;;;;;;;;;;;4.99;100.00;99310.84;5066931;28;19921;-60
2022/11/27 00:07:39;;;;;;;;;;;;;;;5.40;100.00;99303.78;5070036;28;19925;-60
2022/11/27 00:10:06;;;;;;;;;;;;;;;5.75;100.00;99296.63;5066162;28;20028;-61
2022/11/27 00:12:33;;;;;;;;;;;;;;;5.55;100.00;99289.56;5060824;28;19988;-60
2022/11/27 00:14:59;;;;;;;;;;;;;;;5.50;100.00;99287.53;5069296;28;20047;-59
2022/11/27 00:17:25;;;;;;;;;;;;;;;5.35;100.00;99290.28;5067864;28;19989;-59
2022/11/27 00:19:52;;;;;;;;;;;;;;;5.71;100.00;99276.00;5069187;28;19925;-59
2022/11/27 00:22:19;;;;;;;;;;;;;;;5.72;100.00;99275.00;5066588;28;19984;-60
2022/11/27 00:24:46;;;;;;;;;;;;;;;5.76;100.00;99266.41;5066394;28;20028;-59
2022/11/27 00:27:12;;;;;;;;;;;;;;;5.73;100.00;99258.88;5060140;28;19996;-59
2022/11/27 00:29:40;;;;;;;;;;;;;;;5.99;100.00;99255.50;5066714;28;21490;-60
2022/11/27 00:32:07;;;;;;;;;;;;;;;5.74;100.00;99262.34;5069436;28;20531;-60
2022/11/27 00:34:33;;;;;;;;;;;;;;;5.59;100.00;99259.84;5067281;28;19925;-60
2022/11/27 00:36:59;;;;;;;;;;;;;;;5.12;100.00;99268.56;5067859;28;19996;-60
2022/11/27 00:39:27;;;;;;;;;;;;;;;5.42;100.00;99280.56;5059959;28;19941;-59
2022/11/27 00:41:53;;;;;;;;;;;;;;;5.29;100.00;99277.81;5069654;28;19925;-59
2022/11/27 00:44:20;;;;;;;;;;;;;;;5.66;100.00;99265.19;5065493;28;19992;-60
2022/11/27 00:46:46;;;;;;;;;;;;;;;5.81;100.00;99269.31;5069087;28;19936;-60
2022/11/27 00:49:14;;;;;;;;;;;;;;;5.99;100.00;99268.78;5064133;28;19925;-59
2022/11/27 00:51:41;;;;;;;;;;;;;;;6.12;100.00;99260.84;5069124;28;19984;-59
2022/11/27 00:54:07;;;;;;;;;;;;;;;6.19;100.00;99239.66;5068526;28;19951;-60
2022/11/27 00:56:36;;;;;;;;;;;;;;;6.25;100.00;99250.25;5062392;28;19944;-60
2022/11/27 00:59:03;;;;;;;;;;;;;;;6.11;100.00;99258.38;5063825;28;19953;-60
2022/11/27 01:01:30;;;;;;;;;;;;;;;6.01;100.00;99247.34;5066727;28;19960;-60
2022/11/27 01:03:58;;;;;;;;;;;;;;;5.86;100.00;99242.22;5067694;28;19975;-60
2022/11/27 01:06:24;;;;;;;;;;;;;;;5.85;100.00;99243.19;5069021;28;19992;-60
2022/11/27 01:08:51;;;;;;;;;;;;;;;6.03;100.00;99240.84;5061072;28;19925;-60
2022/11/27 01:11:19;;;;;;;;;;;;;;;5.85;100.00;99244.03;5068764;28;20000;-60
2022/11/27 01:13:47;;;;;;;;;;;;;;;5.32;100.00;99243.00;5064142;28;19991;-60
2022/11/27 01:16:15;;;;;;;;;;;;;;;5.25;100.00;99234.22;5069037;28;19935;-60
2022/11/27 01:18:42;;;;;;;;;;;;;;;5.47;100.00;99232.28;5067700;28;19993;-60
2022/11/27 01:21:09;;;;;;;;;;;;;;;5.63;100.00;99239.06;5062816;28;19925;-60
2022/11/27 01:23:35;;;;;;;;;;;;;;;5.69;100.00;99246.22;5065187;28;19984;-61
2022/11/27 01:26:02;;;;;;;;;;;;;;;5.73;100.00;99242.13;5067109;28;19959;-59
2022/11/27 01:28:28;;;;;;;;;;;;;;;5.85;100.00;99232.59;5066842;28;19924;-60
2022/11/27 01:30:56;;;;;;;;;;;;;;;5.57;100.00;99230.06;5065203;28;20000;-60
2022/11/27 01:33:23;;;;;;;;;;;;;;;5.68;100.00;99231.31;5065429;28;19962;-59
2022/11/27 01:35:55;;;;;;;;;;;;;;;5.75;100.00;99233.00;5065121;28;19925;-59
2022/11/27 01:38:22;;;;;;;;;;;;;;;5.43;100.00;99237.16;5066004;28;19925;-59
2022/11/27 01:40:48;;;;;;;;;;;;;;;5.24;100.00;99237.88;5063398;28;19953;-60
2022/11/27 01:43:15;;;;;;;;;;;;;;;5.38;100.00;99236.91;5057658;28;19959;-60
2022/11/27 01:45:43;;;;;;;;;;;;;;;5.42;100.00;99232.03;5063643;28;19992;-61
2022/11/27 01:48:13;;;;;;;;;;;;;;;5.40;100.00;99232.25;5067089;28;19988;-59
2022/11/27 01:50:40;;;;;;;;;;;;;;;5.40;100.00;99231.44;5065375;28;19936;-60
2022/11/27 01:53:08;;;;;;;;;;;;;;;5.16;100.00;99231.94;5062170;28;19927;-60
2022/11/27 01:55:35;;;;;;;;;;;;;;;5.40;100.00;99226.13;5061982;28;19936;-62
2022/11/27 01:58:06;;;;;;;;;;;;;;;5.72;100.00;99232.56;5069185;28;19928;-60
2022/11/27 02:00:33;;;;;;;;;;;;;;;5.77;100.00;99230.97;5062080;28;19924;-59
2022/11/27 02:02:59;;;;;;;;;;;;;;;5.85;100.00;99229.94;5069545;28;19935;-60
2022/11/27 02:05:28;;;;;;;;;;;;;;;5.73;100.00;99229.72;5072466;28;19980;-60
2022/11/27 02:07:56;;;;;;;;;;;;;;;5.62;100.00;99226.81;5072641;28;19936;-60
2022/11/27 02:10:26;;;;;;;;;;;;;;;5.59;100.00;99227.22;5072481;28;19988;-60
2022/11/27 02:12:55;;;;;;;;;;;;;;;5.50;100.00;99223.13;5072292;28;20015;-59
2022/11/27 02:15:26;;;;;;;;;;;;;;;5.65;100.00;99223.78;5072249;28;19960;-60
2022/11/27 02:17:56;;;;;;;;;;;;;;;5.81;100.00;99220.78;5072386;28;19988;-61
2022/11/27 02:20:34;;;;;;;;;;;;;;;5.92;100.00;99218.38;5072275;28;19928;-60
2022/11/27 02:23:14;;;;;;;;;;;;;;;5.72;100.00;99211.38;5071355;28;19960;-60
2022/11/27 02:25:47;;;;;;;;;;;;;;;5.64;100.00;99209.72;5065407;28;19960;-60
2022/11/27 02:28:24;;;;;;;;;;;;;;;5.11;100.00;99213.16;5072080;28;19964;-58
2022/11/27 02:30:56;;;;;;;;;;;;;;;5.09;100.00;99194.81;5072376;28;19990;-59
2022/11/27 02:33:23;;;;;;;;;;;;;;;5.04;100.00;99191.97;5072399;28;19992;-60
2022/11/27 02:35:52;;;;;;;;;;;;;;;5.03;100.00;99198.25;5072244;28;20468;-59
2022/11/27 02:38:21;;;;;;;;;;;;;;;5.04;100.00;99194.59;5071885;28;19967;-59
2022/11/27 02:40:50;;;;;;;;;;;;;;;5.10;100.00;99201.75;5071954;28;19925;-59
2022/11/27 02:43:20;;;;;;;;;;;;;;;5.21;100.00;99192.44;5071912;28;19935;-59
2022/11/27 02:45:48;;;;;;;;;;;;;;;5.23;100.00;99191.22;5071912;28;20154;-59
2022/11/27 02:48:17;;;;;;;;;;;;;;;5.27;100.00;99176.56;5071679;28;19936;-60
2022/11/27 02:50:44;;;;;;;;;;;;;;;5.24;100.00;99170.84;5071774;28;19992;-59
2022/11/27 02:53:14;;;;;;;;;;;;;;;5.22;100.00;99172.88;5070980;28;20067;-59
2022/11/27 02:55:42;;;;;;;;;;;;;;;5.24;100.00;99174.31;5071569;28;19992;-60
2022/11/27 02:58:10;;;;;;;;;;;;;;;5.14;100.00;99170.38;5053497;28;20019;-59
2022/11/27 03:00:38;;;;;;;;;;;;;;;4.99;100.00;99167.06;5071713;28;19924;-60
2022/11/27 03:03:06;;;;;;;;;;;;;;;5.35;100.00;99157.84;5071334;28;19975;-60
2022/11/27 03:05:35;;;;;;;;;;;;;;;5.24;100.00;99160.25;5063640;28;19984;-59
2022/11/27 03:08:04;;;;;;;;;;;;;;;4.70;100.00;99168.16;5071431;28;19977;-60
2022/11/27 03:10:33;;;;;;;;;;;;;;;4.62;100.00;99168.28;5071782;28;19992;-60
2022/11/27 03:13:02;;;;;;;;;;;;;;;4.86;100.00;99162.50;5071745;28;19988;-59
2022/11/27 03:15:31;;;;;;;;;;;;;;;4.36;100.00;99150.44;5071679;28;20001;-59
2022/11/27 03:18:00;;;;;;;;;;;;;;;4.41;100.00;99155.94;5071657;28;20397;-60
2022/11/27 03:20:29;;;;;;;;;;;;;;;4.61;100.00;99158.72;5071564;28;19929;-59
2022/11/27 03:22:57;;;;;;;;;;;;;;;4.50;100.00;99153.97;5070705;28;19969;-59
2022/11/27 03:25:24;;;;;;;;;;;;;;;4.47;100.00;99162.28;5071452;28;19951;-58
2022/11/27 03:27:54;;;;;;;;;;;;;;;4.69;100.00;99163.84;5071687;28;19984;-59
2022/11/27 03:30:20;;;;;;;;;;;;;;;4.28;100.00;99161.97;5071338;28;19976;-60
2022/11/27 03:32:47;;;;;;;;;;;;;;;4.21;100.00;99169.00;5071593;28;19931;-60
2022/11/27 03:35:15;;;;;;;;;;;;;;;4.37;100.00;99175.84;5071266;28;19935;-59
2022/11/27 03:37:42;;;;;;;;;;;;;;;4.08;100.00;99168.94;5071215;28;19964;-59
2022/11/27 03:40:10;;;;;;;;;;;;;;;4.58;100.00;99169.72;5071161;28;19951;-60
2022/11/27 03:42:44;;;;;;;;;;;;;;;4.63;100.00;99172.56;5053262;28;19929;-60
2022/11/27 03:45:17;;;;;;;;;;;;;;;4.67;100.00;99157.97;5070943;28;20055;-59
2022/11/27 03:47:49;;;;;;;;;;;;;;;4.85;100.00;99164.38;5071285;28;19952;-59
2022/11/27 03:50:20;;;;;;;;;;;;;;;4.74;100.00;99179.97;5070976;28;19964;-60
2022/11/27 03:52:51;;;;;;;;;;;;;;;4.52;100.00;99178.41;5070556;28;19968;-59
2022/11/27 03:55:23;;;;;;;;;;;;;;;4.78;100.00;99181.22;5070920;28;20000;-60
2022/11/27 03:57:54;;;;;;;;;;;;;;;4.68;100.00;99170.97;5071085;28;19972;-60
2022/11/27 04:00:21;;;;;;;;;;;;;;;4.75;100.00;99171.84;5070783;28;19956;-59
2022/11/27 04:02:49;;;;;;;;;;;;;;;4.54;100.00;99173.75;5070975;28;19925;-59
2022/11/27 04:05:16;;;;;;;;;;;;;;;4.26;100.00;99171.09;5070733;28;20000;-59
2022/11/27 04:07:42;;;;;;;;;;;;;;;4.14;100.00;99159.41;5070748;28;19943;-59
2022/11/27 04:10:09;;;;;;;;;;;;;;;4.16;100.00;99171.44;5070719;28;19985;-60
2022/11/27 04:12:37;;;;;;;;;;;;;;;4.11;100.00;99167.72;5070669;28;20008;-60
2022/11/27 04:15:04;;;;;;;;;;;;;;;4.28;100.00;99167.25;5070493;28;19932;-59
2022/11/27 04:17:30;;;;;;;;;;;;;;;3.98;100.00;99157.84;5070447;28;19996;-59
2022/11/27 04:19:57;;;;;;;;;;;;;;;3.94;100.00;99155.78;5069783;28;20393;-59
2022/11/27 04:22:23;;;;;;;;;;;;;;;3.83;100.00;99154.47;5051857;28;20039;-59
2022/11/27 04:24:50;;;;;;;;;;;;;;;3.80;100.00;99162.78;5070539;28;19980;-59
2022/11/27 04:27:17;;;;;;;;;;;;;;;3.96;100.00;99146.63;5070382;28;19988;-60
2022/11/27 04:29:44;;;;;;;;;;;;;;;3.86;100.00;99138.25;5070371;28;20035;-59
2022/11/27 04:32:11;;;;;;;;;;;;;;;3.76;100.00;99143.84;5052299;28;19947;-59
2022/11/27 04:34:37;;;;;;;;;;;;;;;3.56;100.00;99147.31;5070342;28;20022;-60
2022/11/27 04:37:03;;;;;;;;;;;;;;;3.72;100.00;99139.94;5070178;28;19960;-59
2022/11/27 04:39:30;;;;;;;;;;;;;;;3.83;100.00;99140.44;5070256;28;19980;-60
2022/11/27 04:41:56;;;;;;;;;;;;;;;3.86;100.00;99132.13;5070071;28;19925;-59
2022/11/27 04:44:22;;;;;;;;;;;;;;;3.90;100.00;99128.91;5069875;28;19948;-59
2022/11/27 04:46:50;;;;;;;;;;;;;;;4.02;100.00;99135.34;5069798;28;19955;-61
2022/11/27 04:49:16;;;;;;;;;;;;;;;3.81;100.00;99140.59;5069724;28;19987;-60
2022/11/27 04:51:44;;;;;;;;;;;;;;;4.18;100.00;99147.41;5069957;28;19984;-60
2022/11/27 04:54:10;;;;;;;;;;;;;;;4.25;100.00;99138.53;5069070;28;19924;-60
2022/11/27 04:56:37;;;;;;;;;;;;;;;4.43;100.00;99137.22;5069980;28;19925;-59
2022/11/27 04:59:03;;;;;;;;;;;;;;;4.40;100.00;99130.50;5069768;28;19964;-60
2022/11/27 05:01:30;;;;;;;;;;;;;;;4.45;100.00;99137.88;5069754;28;19931;-60
2022/11/27 05:03:58;;;;;;;;;;;;;;;4.69;100.00;99138.22;5069711;28;19925;-60
2022/11/27 05:06:24;;;;;;;;;;;;;;;4.73;100.00;99146.59;5069547;28;19928;-60
2022/11/27 05:08:50;;;;;;;;;;;;;;;4.80;100.00;99150.06;5069908;28;19964;-59
2022/11/27 05:11:17;;;;;;;;;;;;;;;4.61;100.00;99148.16;5069368;28;19988;-60
2022/11/27 05:13:43;;;;;;;;;;;;;;;4.81;100.00;99143.78;5069547;28;20030;-60
2022/11/27 05:16:10;;;;;;;;;;;;;;;4.99;100.00;99136.13;5069422;28;19925;-59
2022/11/27 05:18:36;;;;;;;;;;;;;;;5.06;100.00;99139.63;5069327;28;19936;-59
2022/11/27 05:21:05;;;;;;;;;;;;;;;5.12;100.00;99146.78;5069307;28;20001;-59
2022/11/27 05:23:32;;;;;;;;;;;;;;;5.19;100.00;99137.03;5068460;28;20175;-59
2022/11/27 05:25:58;;;;;;;;;;;;;;;5.35;100.00;99123.41;5069239;28;20036;-60
2022/11/27 05:28:25;;;;;;;;;;;;;;;5.42;100.00;99128.72;5051386;28;19936;-60
2022/11/27 05:30:51;;;;;;;;;;;;;;;5.27;100.00;99130.72;5072763;28;19935;-59
2022/11/27 05:33:18;;;;;;;;;;;;;;;5.31;100.00;99135.44;5075785;28;20064;-59
2022/11/27 05:35:45;;;;;;;;;;;;;;;5.29;100.00;99129.50;5075869;28;19925;-59
2022/11/27 05:38:12;;;;;;;;;;;;;;;5.13;100.00;99126.41;5075828;28;19925;-60
2022/11/27 05:40:39;;;;;;;;;;;;;;;5.16;100.00;99131.31;5075922;28;19960;-59
2022/11/27 05:43:05;;;;;;;;;;;;;;;5.13;100.00;99129.06;5075538;28;19960;-60
2022/11/27 05:45:32;;;;;;;;;;;;;;;4.85;100.00;99132.59;5067583;28;19936;-60
2022/11/27 05:47:58;;;;;;;;;;;;;;;4.81;100.00;99125.25;5075980;28;20383;-60
2022/11/27 05:50:24;;;;;;;;;;;;;;;4.87;100.00;99129.75;5075793;28;20012;-60
2022/11/27 05:52:51;;;;;;;;;;;;;;;5.00;100.00;99123.69;5075045;28;19984;-59
2022/11/27 05:55:18;;;;;;;;;;;;;;;5.00;100.00;99116.59;5075658;28;19989;-60
2022/11/27 05:57:45;;;;;;;;;;;;;;;5.12;100.00;99114.16;5075711;28;19924;-60
2022/11/27 06:00:12;;;;;;;;;;;;;;;4.85;100.00;99115.91;5075654;28;19924;-59
2022/11/27 06:02:38;;;;;;;;;;;;;;;4.78;100.00;99107.94;5076028;28;19952;-60
2022/11/27 06:05:05;;;;;;;;;;;;;;;4.82;100.00;99113.66;5075594;28;19924;-61
2022/11/27 06:07:31;;;;;;;;;;;;;;;4.83;100.00;99112.63;5075968;28;19972;-60
2022/11/27 06:09:57;;;;;;;;;;;;;;;4.90;100.00;99110.81;5075770;28;19960;-60
2022/11/27 06:12:25;;;;;;;;;;;;;;;4.82;100.00;99103.06;5075724;28;19975;-61
2022/11/27 06:14:51;;;;;;;;;;;;;;;4.84;100.00;99106.31;5075819;28;19928;-60
2022/11/27 06:17:18;;;;;;;;;;;;;;;4.78;100.00;99097.34;5075694;28;19995;-60
2022/11/27 06:19:44;;;;;;;;;;;;;;;4.84;100.00;99107.16;5075859;28;19976;-60
2022/11/27 06:22:10;;;;;;;;;;;;;;;4.78;100.00;99112.41;5074666;28;19989;-60
2022/11/27 06:24:37;;;;;;;;;;;;;;;5.00;100.00;99107.81;5076129;28;19983;-60
2022/11/27 06:27:03;;;;;;;;;;;;;;;4.98;100.00;99115.97;5076040;28;19940;-61
2022/11/27 06:29:31;;;;;;;;;;;;;;;4.78;100.00;99107.94;5075858;28;19952;-59
2022/11/27 06:31:57;;;;;;;;;;;;;;;4.85;100.00;99108.78;5075499;28;19956;-60
2022/11/27 06:34:23;;;;;;;;;;;;;;;4.80;100.00;99108.53;5075479;28;20023;-60
2022/11/27 06:36:50;;;;;;;;;;;;;;;4.57;100.00;99115.16;5075640;28;19928;-60
2022/11/27 06:39:16;;;;;;;;;;;;;;;4.48;100.00;99117.13;5075483;28;19925;-60
2022/11/27 06:41:43;;;;;;;;;;;;;;;4.41;100.00;99129.50;5075816;28;19952;-59
2022/11/27 06:44:09;;;;;;;;;;;;;;;4.64;100.00;99130.03;5074321;28;19931;-59
2022/11/27 06:46:37;;;;;;;;;;;;;;;4.61;100.00;99117.19;5074146;28;19944;-60
2022/11/27 06:49:03;;;;;;;;;;;;;;;4.43;100.00;99122.19;5073818;28;19936;-60
2022/11/27 06:51:31;;;;;;;;;;;;;;;4.58;100.00;99133.47;5073849;28;19941;-60
2022/11/27 06:54:00;;;;;;;;;;;;;;;4.76;100.00;99122.38;5073311;28;19924;-60
2022/11/27 06:56:28;;;;;;;;;;;;;;;4.87;100.00;99105.94;5073658;28;19932;-60
2022/11/27 06:58:54;;;;;;;;;;;;;;;4.95;100.00;99115.53;5073716;28;19952;-60
2022/11/27 07:01:21;;;;;;;;;;;;;;;5.19;100.00;99102.59;5072801;28;19925;-60
2022/11/27 07:03:50;;;;;;;;;;;;;;;5.19;100.00;99099.94;5072437;28;19993;-60
2022/11/27 07:06:18;;;;;;;;;;;;;;;4.98;100.00;99096.63;5072107;28;19924;-61
2022/11/27 07:08:44;;;;;;;;;;;;;;;4.66;100.00;99106.03;5072090;28;19936;-60
2022/11/27 07:11:12;;;;;;;;;;;;;;;4.67;100.00;99091.81;5071755;28;19995;-61
2022/11/27 07:13:39;;;;;;;;;;;;;;;4.83;100.00;99099.38;5071846;28;19925;-61
2022/11/27 07:16:06;;;;;;;;;;;;;;;4.82;100.00;99097.78;5071645;28;19947;-60
2022/11/27 07:18:35;;;;;;;;;;;;;;;4.92;100.00;99103.50;5071590;28;19936;-60
2022/11/27 07:21:03;;;;;;;;;;;;;;;5.08;100.00;99103.16;5071533;28;19925;-60
2022/11/27 07:23:29;;;;;;;;;;;;;;;5.21;100.00;99105.84;5070459;28;19963;-60
2022/11/27 07:25:55;;;;;;;;;;;;;;;5.10;100.00;99095.84;5071355;28;19964;-61
2022/11/27 07:28:22;;;;;;;;;;;;;;;5.27;100.00;99097.09;5071235;28;19924;-59
2022/11/27 07:30:53;;;;;;;;;;;;;;;5.38;100.00;99103.66;5071429;28;19925;-59
2022/11/27 07:33:20;;;;;;;;;;;;;;;5.45;100.00;99110.59;5071246;28;19975;-60
2022/11/27 07:35:46;;;;;;;;;;;;;;;5.48;100.00;99116.53;5071433;28;19992;-61
2022/11/27 07:38:14;;;;;;;;;;;;;;;5.47;100.00;99117.53;5071092;28;20007;-60
2022/11/27 07:40:40;;;;;;;;;;;;;;;5.27;100.00;99114.81;5071649;28;19975;-59
2022/11/27 07:43:06;;;;;;;;;;;;;;;5.21;100.00;99121.75;5071223;28;19959;-60
2022/11/27 07:45:33;;;;;;;;;;;;;;;5.30;100.00;99106.47;5062995;28;19929;-60
2022/11/27 07:47:59;;;;;;;;;;;;;;;5.13;100.00;99108.69;5071006;28;19988;-59
2022/11/27 07:50:25;;;;;;;;;;;;;;;4.89;100.00;99111.84;5070922;28;19980;-60
2022/11/27 07:52:52;;;;;;;;;;;;;;;4.74;100.00;99097.94;5070035;28;19931;-60
2022/11/27 07:55:19;;;;;;;;;;;;;;;4.73;100.00;99098.97;5069884;28;19952;-60
2022/11/27 07:57:46;;;;;;;;;;;;;;;4.65;100.00;99085.88;5070894;28;19981;-60
2022/11/27 08:00:13;;;;;;;;;;;;;;;4.68;100.00;99082.84;5070531;28;19964;-60
2022/11/27 08:02:39;;;;;;;;;;;;;;;4.71;100.00;99075.31;5052888;28;20044;-61
2022/11/27 08:05:06;;;;;;;;;;;;;;;4.68;100.00;99066.97;5070550;28;19987;-60
2022/11/27 08:07:32;;;;;;;;;;;;;;;4.61;100.00;99066.91;5062344;28;19956;-60
2022/11/27 08:09:58;;;;;;;;;;;;;;;4.52;100.00;99062.03;5052767;28;19976;-59
2022/11/27 08:12:26;;;;;;;;;;;;;;;4.45;100.00;99061.97;5070376;28;20013;-60
2022/11/27 08:14:52;;;;;;;;;;;;;;;4.43;100.00;99055.22;5070375;28;19937;-59
2022/11/27 08:17:19;;;;;;;;;;;;;;;4.42;100.00;99048.31;5070185;28;19925;-59
2022/11/27 08:19:45;;;;;;;;;;;;;;;4.46;100.00;99055.66;5070233;28;19951;-60
2022/11/27 08:22:12;;;;;;;;;;;;;;;4.45;100.00;99048.75;5069108;28;19988;-60
2022/11/27 08:24:38;;;;;;;;;;;;;;;4.46;100.00;99045.06;5070174;28;19993;-59
2022/11/27 08:27:05;;;;;;;;;;;;;;;4.57;100.00;99044.53;5070091;28;20000;-59
2022/11/27 08:29:32;;;;;;;;;;;;;;;4.59;100.00;99047.78;5070208;28;19925;-60
2022/11/27 08:31:59;;;;;;;;;;;;;;;4.65;100.00;99046.19;5069984;28;20006;-59
2022/11/27 08:34:25;;;;;;;;;;;;;;;4.69;100.00;99042.13;5069856;28;19925;-60
2022/11/27 08:36:52;;;;;;;;;;;;;;;4.77;100.00;99052.53;5070152;28;19928;-60
2022/11/27 08:39:18;;;;;;;;;;;;;;;4.67;100.00;99046.81;5069720;28;19925;-60
2022/11/27 08:41:45;;;;;;;;;;;;;;;4.77;100.00;99036.66;5069977;28;19970;-59
2022/11/27 08:44:11;;;;;;;;;;;;;;;4.90;100.00;99037.53;5069852;28;19964;-60
2022/11/27 08:46:39;;;;;;;;;;;;;;;4.69;100.00;99039.50;5069930;28;19988;-59
2022/11/27 08:49:05;;;;;;;;;;;;;;;4.60;100.00;99044.16;5069792;28;19992;-59
2022/11/27 08:51:31;;;;;;;;;;;;;;;4.64;100.00;99045.38;5069693;28;19979;-59
2022/11/27 08:53:58;;;;;;;;;;;;;;;4.75;100.00;99038.69;5068934;28;20051;-60
2022/11/27 08:56:24;;;;;;;;;;;;;;;4.73;100.00;99032.81;5069458;28;20015;-59
2022/11/27 08:58:51;;;;;;;;;;;;;;;4.56;100.00;99036.78;5069722;28;19979;-59
2022/11/27 09:01:18;;;;;;;;;;;;;;;4.57;100.00;99036.59;5069533;28;19925;-61
2022/11/27 09:03:46;;;;;;;;;;;;;;;4.61;100.00;99031.75;5069743;28;20011;-59
2022/11/27 09:06:14;;;;;;;;;;;;;;;4.56;100.00;99045.53;5069280;28;20441;-60
2022/11/27 09:08:41;;;;;;;;;;;;;;;4.50;100.00;99042.88;5069651;28;20153;-60
2022/11/27 09:11:08;;;;;;;;;;;;;;;4.44;100.00;99035.72;5069476;28;19925;-60
2022/11/27 09:13:35;;;;;;;;;;;;;;;4.47;100.00;99035.31;5069643;28;20094;-59
2022/11/27 09:16:02;;;;;;;;;;;;;;;4.43;100.00;99034.06;5069357;28;19992;-60
2022/11/27 09:18:28;;;;;;;;;;;;;;;4.43;100.00;99023.50;5069384;28;20000;-60
2022/11/27 09:20:57;;;;;;;;;;;;;;;4.48;100.00;99031.69;5069531;28;19931;-61
2022/11/27 09:23:23;;;;;;;;;;;;;;;4.49;100.00;99020.88;5068246;28;19984;-60
2022/11/27 09:25:49;;;;;;;;;;;;;;;4.46;100.00;99017.81;5069309;28;19924;-59
2022/11/27 09:28:16;;;;;;;;;;;;;;;4.38;100.00;99010.88;5069062;28;19984;-60
2022/11/27 09:30:42;;;;;;;;;;;;;;;4.35;100.00;99005.97;5069328;28;20009;-60
2022/11/27 09:33:08;;;;;;;;;;;;;;;4.44;100.00;99009.25;5069251;28;19963;-61
2022/11/27 09:35:36;;;;;;;;;;;;;;;4.43;100.00;99015.56;5069551;28;19935;-59
2022/11/27 09:38:04;;;;;;;;;;;;;;;4.45;100.00;99026.78;5069611;28;19975;-61
2022/11/27 09:40:30;;;;;;;;;;;;;;;4.46;100.00;99012.50;5069546;28;19925;-60
2022/11/27 09:43:01;;;;;;;;;;;;;;;4.55;100.00;99012.16;5069355;28;19929;-60
2022/11/27 09:45:27;;;;;;;;;;;;;;;4.46;100.00;99013.34;5069309;28;19940;-59
2022/11/27 09:47:56;;;;;;;;;;;;;;;4.35;100.00;99006.78;5069278;28;19996;-59
2022/11/27 09:50:25;;;;;;;;;;;;;;;4.41;100.00;99010.47;5069073;28;20041;-59
2022/11/27 09:52:54;;;;;;;;;;;;;;;4.45;100.00;99008.25;5068412;28;19964;-60
2022/11/27 09:55:23;;;;;;;;;;;;;;;4.50;100.00;99013.75;5068890;28;19924;-61
2022/11/27 09:57:54;;;;;;;;;;;;;;;4.46;100.00;99002.75;5069215;28;19984;-62
2022/11/27 10:00:21;;;;;;;;;;;;;;;4.42;100.00;98998.91;5068941;28;19952;-61
2022/11/27 10:02:47;;;;;;;;;;;;;;;4.51;100.00;99004.81;5069424;28;19925;-59
2022/11/27 10:05:17;;;;;;;;;;;;;;;4.49;100.00;98991.00;5069157;28;20309;-60
2022/11/27 10:07:54;;;;;;;;;;;;;;;4.44;100.00;98993.41;5069224;28;19996;-60
2022/11/27 10:10:26;;;;;;;;;;;;;;;4.47;100.00;99003.56;5068991;28;19924;-61
2022/11/27 10:12:59;;;;;;;;;;;;;;;4.43;100.00;99000.50;5069362;28;19925;-59
2022/11/27 10:15:31;;;;;;;;;;;;;;;4.39;100.00;99001.94;5069244;28;19984;-61
2022/11/27 10:18:01;;;;;;;;;;;;;;;4.39;100.00;99001.13;5071521;28;19925;-60
2022/11/27 10:20:32;;;;;;;;;;;;;;;4.48;100.00;98992.00;5073084;28;19968;-60
2022/11/27 10:23:01;;;;;;;;;;;;;;;4.55;100.00;98992.84;5071920;28;19948;-61
2022/11/27 10:25:33;;;;;;;;;;;;;;;4.61;100.00;98979.63;5072701;28;19996;-60
2022/11/27 10:28:08;;;;;;;;;;;;;;;4.58;100.00;98979.22;5072800;28;19932;-60
2022/11/27 10:30:38;;;;;;;;;;;;;;;4.50;100.00;98966.97;5064649;28;19948;-60
2022/11/27 10:33:13;;;;;;;;;;;;;;;4.40;100.00;98968.34;5072609;28;19960;-60
2022/11/27 10:35:40;;;;;;;;;;;;;;;4.36;100.00;98958.16;5065468;28;19996;-59
2022/11/27 10:38:11;;;;;;;;;;;;;;;4.40;100.00;98955.13;5071490;28;19963;-60
2022/11/27 10:40:40;;;;;;;;;;;;;;;4.41;100.00;98951.47;5065003;28;19964;-62
2022/11/27 10:43:10;;;;;;;;;;;;;;;4.38;100.00;98951.88;5072715;28;20020;-60
2022/11/27 10:45:38;;;;;;;;;;;;;;;4.37;100.00;98948.41;5064967;28;20477;-59
2022/11/27 10:48:05;;;;;;;;;;;;;;;4.43;100.00;98947.59;5072648;28;20412;-60
2022/11/27 10:50:32;;;;;;;;;;;;;;;4.44;100.00;98940.50;5072625;28;19959;-60
2022/11/27 10:53:00;;;;;;;;;;;;;;;4.46;100.00;98954.31;5071932;28;19924;-59
2022/11/27 10:55:34;;;;;;;;;;;;;;;4.59;100.00;98959.66;5072221;28;19992;-60
2022/11/27 10:58:06;;;;;;;;;;;;;;;4.45;100.00;98958.00;5072528;28;20655;-60
2022/11/27 11:00:32;;;;;;;;;;;;;;;4.48;100.00;98953.13;5064361;28;19947;-60
2022/11/27 11:03:00;;;;;;;;;;;;;;;4.48;100.00;98957.59;5072315;28;19992;-60
2022/11/27 11:05:27;;;;;;;;;;;;;;;4.51;100.00;98954.56;5072164;28;19925;-60
2022/11/27 11:07:55;;;;;;;;;;;;;;;4.50;100.00;98950.28;5072308;28;19964;-60
2022/11/27 11:10:24;;;;;;;;;;;;;;;4.47;100.00;98945.38;5071708;28;19974;-59
2022/11/27 11:13:04;;;;;;;;;;;;;;;4.49;100.00;98948.66;5071753;28;19935;-59
2022/11/27 11:15:31;;;;;;;;;;;;;;;4.39;100.00;98932.34;5071770;28;19925;-59
2022/11/27 11:17:57;;;;;;;;;;;;;;;4.29;100.00;98933.53;5071949;28;20051;-59
2022/11/27 11:20:24;;;;;;;;;;;;;;;4.40;100.00;98923.38;5053725;28;19963;-59
2022/11/27 11:22:51;;;;;;;;;;;;;;;4.47;100.00;98934.81;5070675;28;20539;-60
2022/11/27 11:25:18;;;;;;;;;;;;;;;4.48;100.00;98920.56;5071321;28;19972;-60
2022/11/27 11:27:45;;;;;;;;;;;;;;;4.39;100.00;98916.47;5071260;28;19925;-60
2022/11/27 11:30:21;;;;;;;;;;;;;;;4.49;100.00;98914.28;5071541;28;19929;-60
2022/11/27 11:32:48;;;;;;;;;;;;;;;4.36;100.00;98913.19;5071587;28;19987;-60
2022/11/27 11:35:24;;;;;;;;;;;;;;;4.29;100.00;98908.94;5071299;28;19925;-59
2022/11/27 11:37:51;;;;;;;;;;;;;;;4.34;100.00;98903.84;5071469;28;19985;-60
2022/11/27 11:40:21;;;;;;;;;;;;;;;4.40;100.00;98902.22;5071264;28;19921;-60
2022/11/27 11:42:52;;;;;;;;;;;;;;;4.42;100.00;98902.84;5071545;28;19963;-60
2022/11/27 11:45:21;;;;;;;;;;;;;;;4.45;100.00;98894.53;5071300;28;19947;-61
2022/11/27 11:47:48;;;;;;;;;;;;;;;4.56;100.00;98896.56;5071408;28;19964;-60
2022/11/27 11:50:17;;;;;;;;;;;;;;;4.45;100.00;98897.16;5071125;28;19936;-60
2022/11/27 11:52:49;;;;;;;;;;;;;;;4.46;100.00;98893.50;5070430;28;19962;-60
2022/11/27 11:55:18;;;;;;;;;;;;;;;4.42;100.00;98900.22;5070862;28;19996;-60
2022/11/27 11:58:11;;;;;;;;;;;;;;;4.54;100.00;98888.03;5070864;28;19925;-59
2022/11/27 12:00:42;;;;;;;;;;;;;;;4.51;100.00;98888.44;5058197;28;19925;-60
2022/11/27 12:03:18;;;;;;;;;;;;;;;4.49;100.00;98890.47;5067802;28;19925;-61
2022/11/27 12:05:53;;;;;;;;;;;;;;;4.53;100.00;98894.34;5071294;28;19956;-59
2022/11/27 12:08:25;;;;;;;;;;;;;;;4.61;100.00;98888.88;5070645;28;19929;-59
2022/11/27 12:10:57;;;;;;;;;;;;;;;4.65;100.00;98879.50;5070768;28;19936;-60
2022/11/27 12:13:32;;;;;;;;;;;;;;;4.73;100.00;98888.09;5070444;28;19929;-59
2022/11/27 12:16:05;;;;;;;;;;;;;;;4.74;100.00;98878.28;5070618;28;20031;-59
2022/11/27 12:18:37;;;;;;;;;;;;;;;4.58;100.00;98879.47;5070474;28;20577;-60
2022/11/27 12:21:13;;;;;;;;;;;;;;;4.62;100.00;98870.13;5070511;28;20033;-60
2022/11/27 12:23:53;;;;;;;;;;;;;;;4.72;100.00;98865.28;5063078;28;19925;-59
2022/11/27 12:26:25;;;;;;;;;;;;;;;4.54;100.00;98864.22;5070327;28;19992;-60
2022/11/27 12:28:59;;;;;;;;;;;;;;;4.58;100.00;98870.75;5070695;28;19950;-60
2022/11/27 12:31:34;;;;;;;;;;;;;;;4.69;100.00;98870.16;5070306;28;20008;-59
2022/11/27 12:34:02;;;;;;;;;;;;;;;4.66;100.00;98859.97;5070504;28;19928;-59
2022/11/27 12:36:40;;;;;;;;;;;;;;;4.57;100.00;98845.31;5069990;28;19929;-60
2022/11/27 12:39:19;;;;;;;;;;;;;;;4.53;100.00;98844.06;5069661;28;20010;-60
2022/11/27 12:41:50;;;;;;;;;;;;;;;4.59;100.00;98849.38;5063367;28;19925;-60
2022/11/27 12:44:20;;;;;;;;;;;;;;;4.72;100.00;98848.56;5070148;28;19988;-60
2022/11/27 12:46:51;;;;;;;;;;;;;;;4.65;100.00;98837.16;5069922;28;19996;-60
2022/11/27 12:49:21;;;;;;;;;;;;;;;4.71;100.00;98833.72;5070025;28;19971;-60
2022/11/27 12:51:49;;;;;;;;;;;;;;;4.65;100.00;98826.59;5070169;28;20015;-60